sensor_id;sensor_type;location;lat;lon;timestamp;temperature;humidity
17172;DHT22;8701;50.150;8.756;2023-09-30T00:03:22;17.50;99.90
17172;DHT22;8701;50.150;8.756;2023-09-30T00:07:25;17.50;99.90
17172;DHT22;8701;50.150;8.756;2023-09-30T00:11:27;17.40;99.90
17172;DHT22;8701;50.150;8.756;2023-09-30T00:15:29;17.30;99.90
17172;DHT22;8701;50.150;8.756;2023-09-30T00:19:32;17.20;99.90
17172;DHT22;8701;50.150;8.756;2023-09-30T00:23:35;17.10;99.90
17172;DHT22;8701;50.150;8.756;2023-09-30T00:27:37;17.10;99.90
17172;DHT22;8701;50.150;8.756;2023-09-30T00:31:40;17.00;99.90
17172;DHT22;8701;50.150;8.756;2023-09-30T00:35:42;17.00;99.90
17172;DHT22;8701;50.150;8.756;2023-09-30T00:39:46;16.90;99.90
17172;DHT22;8701;50.150;8.756;2023-09-30T00:43:48;16.90;99.90
17172;DHT22;8701;50.150;8.756;2023-09-30T00:47:50;16.90;99.90
17172;DHT22;8701;50.150;8.756;2023-09-30T00:51:53;16.90;99.90
17172;DHT22;8701;50.150;8.756;2023-09-30T00:55:58;16.80;99.90
17172;DHT22;8701;50.150;8.756;2023-09-30T01:00:01;16.80;99.90
17172;DHT22;8701;50.150;8.756;2023-09-30T01:04:05;16.80;99.90
17172;DHT22;8701;50.150;8.756;2023-09-30T01:08:07;16.70;99.90
17172;DHT22;8701;50.150;8.756;2023-09-30T01:12:11;16.60;99.90
17172;DHT22;8701;50.150;8.756;2023-09-30T01:16:13;16.60;99.90
17172;DHT22;8701;50.150;8.756;2023-09-30T01:20:16;16.50;99.90
17172;DHT22;8701;50.150;8.756;2023-09-30T01:24:22;16.40;99.90
17172;DHT22;8701;50.150;8.756;2023-09-30T01:28:24;16.50;99.90
17172;DHT22;8701;50.150;8.756;2023-09-30T01:32:27;16.50;99.90
17172;DHT22;8701;50.150;8.756;2023-09-30T01:36:30;16.60;99.90
17172;DHT22;8701;50.150;8.756;2023-09-30T01:40:33;16.60;99.90
17172;DHT22;8701;50.150;8.756;2023-09-30T01:44:36;16.60;99.90
17172;DHT22;8701;50.150;8.756;2023-09-30T01:48:38;16.60;99.90
17172;DHT22;8701;50.150;8.756;2023-09-30T01:52:40;16.60;99.90
17172;DHT22;8701;50.150;8.756;2023-09-30T01:56:44;16.60;99.90
17172;DHT22;8701;50.150;8.756;2023-09-30T02:00:46;16.50;99.90
17172;DHT22;8701;50.150;8.756;2023-09-30T02:04:48;16.50;99.90
17172;DHT22;8701;50.150;8.756;2023-09-30T02:08:50;16.40;99.90
17172;DHT22;8701;50.150;8.756;2023-09-30T02:12:54;16.40;99.90
17172;DHT22;8701;50.150;8.756;2023-09-30T02:16:57;16.40;99.90
17172;DHT22;8701;50.150;8.756;2023-09-30T02:20:59;16.40;99.90
17172;DHT22;8701;50.150;8.756;2023-09-30T02:25:02;16.30;99.90
17172;DHT22;8701;50.150;8.756;2023-09-30T02:29:09;16.20;99.90
17172;DHT22;8701;50.150;8.756;2023-09-30T02:33:11;16.20;99.90
17172;DHT22;8701;50.150;8.756;2023-09-30T02:37:13;16.20;99.90
17172;DHT22;8701;50.150;8.756;2023-09-30T02:41:16;16.20;99.90
17172;DHT22;8701;50.150;8.756;2023-09-30T02:45:20;16.10;99.90
17172;DHT22;8701;50.150;8.756;2023-09-30T02:49:22;16.10;99.90
17172;DHT22;8701;50.150;8.756;2023-09-30T02:53:24;16.10;99.90
17172;DHT22;8701;50.150;8.756;2023-09-30T02:57:27;16.20;99.90
17172;DHT22;8701;50.150;8.756;2023-09-30T03:01:30;16.10;99.90
17172;DHT22;8701;50.150;8.756;2023-09-30T03:05:33;16.20;99.90
17172;DHT22;8701;50.150;8.756;2023-09-30T03:09:35;16.30;99.90
17172;DHT22;8701;50.150;8.756;2023-09-30T03:13:37;16.30;99.90
17172;DHT22;8701;50.150;8.756;2023-09-30T03:17:43;16.30;99.90
17172;DHT22;8701;50.150;8.756;2023-09-30T03:21:45;16.30;99.90
17172;DHT22;8701;50.150;8.756;2023-09-30T03:25:47;16.30;99.90
17172;DHT22;8701;50.150;8.756;2023-09-30T03:29:50;16.30;99.90
17172;DHT22;8701;50.150;8.756;2023-09-30T03:33:53;16.30;99.90
17172;DHT22;8701;50.150;8.756;2023-09-30T03:37:55;16.30;99.90
17172;DHT22;8701;50.150;8.756;2023-09-30T03:41:59;16.20;99.90
17172;DHT22;8701;50.150;8.756;2023-09-30T03:46:01;16.20;99.90
17172;DHT22;8701;50.150;8.756;2023-09-30T03:50:05;16.10;99.90
17172;DHT22;8701;50.150;8.756;2023-09-30T03:54:14;16.00;99.90
17172;DHT22;8701;50.150;8.756;2023-09-30T03:58:16;16.00;99.90
17172;DHT22;8701;50.150;8.756;2023-09-30T04:02:19;16.00;99.90
17172;DHT22;8701;50.150;8.756;2023-09-30T04:06:23;16.00;99.90
17172;DHT22;8701;50.150;8.756;2023-09-30T04:10:25;16.00;99.90
17172;DHT22;8701;50.150;8.756;2023-09-30T04:14:28;15.90;99.90
17172;DHT22;8701;50.150;8.756;2023-09-30T04:18:30;15.90;99.90
17172;DHT22;8701;50.150;8.756;2023-09-30T04:22:34;15.80;99.90
17172;DHT22;8701;50.150;8.756;2023-09-30T04:26:36;15.80;99.90
17172;DHT22;8701;50.150;8.756;2023-09-30T04:30:40;15.70;99.90
17172;DHT22;8701;50.150;8.756;2023-09-30T04:34:42;15.70;99.90
17172;DHT22;8701;50.150;8.756;2023-09-30T04:38:46;15.70;99.90
17172;DHT22;8701;50.150;8.756;2023-09-30T04:42:48;15.70;99.90
17172;DHT22;8701;50.150;8.756;2023-09-30T04:46:50;15.70;99.90
17172;DHT22;8701;50.150;8.756;2023-09-30T04:50:52;15.80;99.90
17172;DHT22;8701;50.150;8.756;2023-09-30T04:54:57;15.80;99.90
17172;DHT22;8701;50.150;8.756;2023-09-30T04:59:01;15.80;99.90
17172;DHT22;8701;50.150;8.756;2023-09-30T05:03:03;15.90;99.90
17172;DHT22;8701;50.150;8.756;2023-09-30T05:07:06;15.90;99.90
17172;DHT22;8701;50.150;8.756;2023-09-30T05:11:09;15.80;99.90
17172;DHT22;8701;50.150;8.756;2023-09-30T05:15:12;15.80;99.90
17172;DHT22;8701;50.150;8.756;2023-09-30T05:19:16;15.80;99.90
17172;DHT22;8701;50.150;8.756;2023-09-30T05:23:18;15.70;99.90
17172;DHT22;8701;50.150;8.756;2023-09-30T05:27:22;15.60;99.90
17172;DHT22;8701;50.150;8.756;2023-09-30T05:31:24;15.60;99.90
17172;DHT22;8701;50.150;8.756;2023-09-30T05:35:26;15.50;99.90
17172;DHT22;8701;50.150;8.756;2023-09-30T05:39:29;15.50;99.90
17172;DHT22;8701;50.150;8.756;2023-09-30T05:43:34;15.40;99.90
17172;DHT22;8701;50.150;8.756;2023-09-30T05:47:36;15.30;99.90
17172;DHT22;8701;50.150;8.756;2023-09-30T05:51:38;15.30;99.90
17172;DHT22;8701;50.150;8.756;2023-09-30T05:55:40;15.20;99.90
17172;DHT22;8701;50.150;8.756;2023-09-30T05:59:45;15.20;99.90
17172;DHT22;8701;50.150;8.756;2023-09-30T06:03:47;15.30;99.90
17172;DHT22;8701;50.150;8.756;2023-09-30T06:07:50;15.20;99.90
17172;DHT22;8701;50.150;8.756;2023-09-30T06:11:52;15.20;99.90
17172;DHT22;8701;50.150;8.756;2023-09-30T06:15:56;15.20;99.90
17172;DHT22;8701;50.150;8.756;2023-09-30T06:19:59;15.20;99.90
17172;DHT22;8701;50.150;8.756;2023-09-30T06:24:08;15.30;99.90
17172;DHT22;8701;50.150;8.756;2023-09-30T06:28:10;15.30;99.90
17172;DHT22;8701;50.150;8.756;2023-09-30T06:32:16;15.40;99.90
17172;DHT22;8701;50.150;8.756;2023-09-30T06:36:18;15.50;99.90
17172;DHT22;8701;50.150;8.756;2023-09-30T06:40:22;15.60;99.90
17172;DHT22;8701;50.150;8.756;2023-09-30T06:44:24;15.80;99.90
17172;DHT22;8701;50.150;8.756;2023-09-30T06:48:28;15.90;99.90
17172;DHT22;8701;50.150;8.756;2023-09-30T06:52:30;16.00;99.90
17172;DHT22;8701;50.150;8.756;2023-09-30T06:56:32;16.10;99.90
17172;DHT22;8701;50.150;8.756;2023-09-30T07:00:34;16.30;99.90
17172;DHT22;8701;50.150;8.756;2023-09-30T07:04:38;16.30;99.90
17172;DHT22;8701;50.150;8.756;2023-09-30T07:08:40;16.50;99.90
17172;DHT22;8701;50.150;8.756;2023-09-30T07:12:43;16.60;99.90
17172;DHT22;8701;50.150;8.756;2023-09-30T07:16:45;16.70;99.90
17172;DHT22;8701;50.150;8.756;2023-09-30T07:20:48;16.80;99.90
17172;DHT22;8701;50.150;8.756;2023-09-30T07:24:51;17.00;99.90
17172;DHT22;8701;50.150;8.756;2023-09-30T07:28:53;17.20;99.90
17172;DHT22;8701;50.150;8.756;2023-09-30T07:32:57;17.50;99.90
17172;DHT22;8701;50.150;8.756;2023-09-30T07:37:01;17.80;99.90
17172;DHT22;8701;50.150;8.756;2023-09-30T07:41:03;18.20;99.90
17172;DHT22;8701;50.150;8.756;2023-09-30T07:45:07;18.80;99.90
17172;DHT22;8701;50.150;8.756;2023-09-30T07:49:10;19.70;99.90
17172;DHT22;8701;50.150;8.756;2023-09-30T07:53:14;21.20;99.90
17172;DHT22;8701;50.150;8.756;2023-09-30T07:57:16;22.70;99.90
17172;DHT22;8701;50.150;8.756;2023-09-30T08:01:18;23.60;99.90
17172;DHT22;8701;50.150;8.756;2023-09-30T08:05:20;23.90;99.90
17172;DHT22;8701;50.150;8.756;2023-09-30T08:09:24;24.40;99.90
17172;DHT22;8701;50.150;8.756;2023-09-30T08:13:26;24.90;99.90
17172;DHT22;8701;50.150;8.756;2023-09-30T08:17:30;25.50;99.90
17172;DHT22;8701;50.150;8.756;2023-09-30T08:21:32;26.20;99.90
17172;DHT22;8701;50.150;8.756;2023-09-30T08:25:36;26.80;99.90
17172;DHT22;8701;50.150;8.756;2023-09-30T08:29:38;27.50;99.90
17172;DHT22;8701;50.150;8.756;2023-09-30T08:33:40;27.80;99.90
17172;DHT22;8701;50.150;8.756;2023-09-30T08:37:46;28.40;99.90
17172;DHT22;8701;50.150;8.756;2023-09-30T08:41:50;28.90;99.90
17172;DHT22;8701;50.150;8.756;2023-09-30T08:45:53;29.10;99.90
17172;DHT22;8701;50.150;8.756;2023-09-30T08:49:58;29.40;99.90
17172;DHT22;8701;50.150;8.756;2023-09-30T08:54:06;29.50;99.50
17172;DHT22;8701;50.150;8.756;2023-09-30T08:58:11;29.70;98.60
17172;DHT22;8701;50.150;8.756;2023-09-30T09:02:14;30.30;98.00
17172;DHT22;8701;50.150;8.756;2023-09-30T09:06:16;30.40;97.10
17172;DHT22;8701;50.150;8.756;2023-09-30T09:10:19;30.50;95.80
17172;DHT22;8701;50.150;8.756;2023-09-30T09:14:36;30.10;97.10
17172;DHT22;8701;50.150;8.756;2023-09-30T09:18:39;29.00;97.40
17172;DHT22;8701;50.150;8.756;2023-09-30T09:22:42;28.70;98.70
17172;DHT22;8701;50.150;8.756;2023-09-30T09:26:45;28.70;98.80
17172;DHT22;8701;50.150;8.756;2023-09-30T09:30:48;29.00;97.70
17172;DHT22;8701;50.150;8.756;2023-09-30T09:35:01;28.40;96.40
17172;DHT22;8701;50.150;8.756;2023-09-30T09:39:04;26.90;97.20
17172;DHT22;8701;50.150;8.756;2023-09-30T09:43:06;25.80;99.70
17172;DHT22;8701;50.150;8.756;2023-09-30T09:47:11;25.20;99.90
17172;DHT22;8701;50.150;8.756;2023-09-30T09:51:13;25.00;99.90
17172;DHT22;8701;50.150;8.756;2023-09-30T09:55:16;26.10;99.90
17172;DHT22;8701;50.150;8.756;2023-09-30T09:59:20;27.50;97.50
17172;DHT22;8701;50.150;8.756;2023-09-30T10:03:25;28.90;96.20
17172;DHT22;8701;50.150;8.756;2023-09-30T10:07:30;30.10;94.70
17172;DHT22;8701;50.150;8.756;2023-09-30T10:11:35;30.60;93.90
17172;DHT22;8701;50.150;8.756;2023-09-30T10:15:38;30.90;93.40
17172;DHT22;8701;50.150;8.756;2023-09-30T10:20:07;30.90;92.20
17172;DHT22;8701;50.150;8.756;2023-09-30T10:24:29;30.30;94.10
17172;DHT22;8701;50.150;8.756;2023-09-30T10:28:36;30.90;92.80
17172;DHT22;8701;50.150;8.756;2023-09-30T10:33:12;29.90;93.50
17172;DHT22;8701;50.150;8.756;2023-09-30T10:37:21;28.50;95.00
17172;DHT22;8701;50.150;8.756;2023-09-30T10:41:58;28.10;95.30
17172;DHT22;8701;50.150;8.756;2023-09-30T10:46:01;27.20;95.10
17172;DHT22;8701;50.150;8.756;2023-09-30T10:50:03;28.00;94.60
17172;DHT22;8701;50.150;8.756;2023-09-30T10:54:30;27.80;94.30
17172;DHT22;8701;50.150;8.756;2023-09-30T10:58:42;26.50;95.30
17172;DHT22;8701;50.150;8.756;2023-09-30T11:02:48;25.70;94.90
17172;DHT22;8701;50.150;8.756;2023-09-30T11:06:52;26.80;96.30
17172;DHT22;8701;50.150;8.756;2023-09-30T11:10:55;27.40;95.70
17172;DHT22;8701;50.150;8.756;2023-09-30T11:15:02;27.40;92.40
17172;DHT22;8701;50.150;8.756;2023-09-30T11:19:04;28.10;93.30
17172;DHT22;8701;50.150;8.756;2023-09-30T11:23:09;27.90;92.00
17172;DHT22;8701;50.150;8.756;2023-09-30T11:27:13;27.00;93.20
17172;DHT22;8701;50.150;8.756;2023-09-30T11:31:15;26.80;95.50
17172;DHT22;8701;50.150;8.756;2023-09-30T11:35:22;27.30;94.00
17172;DHT22;8701;50.150;8.756;2023-09-30T11:39:26;28.60;93.10
17172;DHT22;8701;50.150;8.756;2023-09-30T11:43:30;30.30;90.50
17172;DHT22;8701;50.150;8.756;2023-09-30T11:47:32;31.30;90.50
17172;DHT22;8701;50.150;8.756;2023-09-30T11:51:42;32.00;87.90
17172;DHT22;8701;50.150;8.756;2023-09-30T11:55:47;32.60;87.30
17172;DHT22;8701;50.150;8.756;2023-09-30T11:59:50;33.10;83.80
17172;DHT22;8701;50.150;8.756;2023-09-30T12:03:53;33.30;84.70
17172;DHT22;8701;50.150;8.756;2023-09-30T12:07:57;33.70;82.60
17172;DHT22;8701;50.150;8.756;2023-09-30T12:11:59;33.50;79.00
17172;DHT22;8701;50.150;8.756;2023-09-30T12:16:03;33.70;79.30
17172;DHT22;8701;50.150;8.756;2023-09-30T12:20:06;34.00;77.30
17172;DHT22;8701;50.150;8.756;2023-09-30T12:24:09;34.50;78.40
17172;DHT22;8701;50.150;8.756;2023-09-30T12:28:14;34.60;76.70
17172;DHT22;8701;50.150;8.756;2023-09-30T12:32:19;34.80;74.70
17172;DHT22;8701;50.150;8.756;2023-09-30T12:36:22;34.80;73.30
17172;DHT22;8701;50.150;8.756;2023-09-30T12:40:25;34.40;73.10
17172;DHT22;8701;50.150;8.756;2023-09-30T12:44:29;34.40;75.20
17172;DHT22;8701;50.150;8.756;2023-09-30T12:48:32;34.10;75.30
17172;DHT22;8701;50.150;8.756;2023-09-30T12:52:34;34.00;73.20
17172;DHT22;8701;50.150;8.756;2023-09-30T12:56:37;34.20;74.40
17172;DHT22;8701;50.150;8.756;2023-09-30T13:00:39;34.20;72.40
17172;DHT22;8701;50.150;8.756;2023-09-30T13:04:42;34.30;73.00
17172;DHT22;8701;50.150;8.756;2023-09-30T13:08:45;34.20;71.10
17172;DHT22;8701;50.150;8.756;2023-09-30T13:12:48;33.20;71.80
17172;DHT22;8701;50.150;8.756;2023-09-30T13:16:50;33.20;73.10
17172;DHT22;8701;50.150;8.756;2023-09-30T13:20:54;33.30;70.90
17172;DHT22;8701;50.150;8.756;2023-09-30T13:25:00;33.00;69.70
17172;DHT22;8701;50.150;8.756;2023-09-30T13:29:02;32.80;72.20
17172;DHT22;8701;50.150;8.756;2023-09-30T13:33:06;32.80;75.30
17172;DHT22;8701;50.150;8.756;2023-09-30T13:37:09;32.80;74.10
17172;DHT22;8701;50.150;8.756;2023-09-30T13:41:12;32.60;71.80
17172;DHT22;8701;50.150;8.756;2023-09-30T13:45:14;32.20;72.10
17172;DHT22;8701;50.150;8.756;2023-09-30T13:49:18;32.30;73.40
17172;DHT22;8701;50.150;8.756;2023-09-30T13:53:21;32.30;74.40
17172;DHT22;8701;50.150;8.756;2023-09-30T13:57:23;32.20;73.00
17172;DHT22;8701;50.150;8.756;2023-09-30T14:01:25;31.80;73.10
17172;DHT22;8701;50.150;8.756;2023-09-30T14:05:28;31.60;75.20
17172;DHT22;8701;50.150;8.756;2023-09-30T14:09:31;31.30;73.50
17172;DHT22;8701;50.150;8.756;2023-09-30T14:13:33;31.00;73.70
17172;DHT22;8701;50.150;8.756;2023-09-30T14:17:36;30.90;74.40
17172;DHT22;8701;50.150;8.756;2023-09-30T14:21:38;30.80;75.40
17172;DHT22;8701;50.150;8.756;2023-09-30T14:25:42;30.80;76.40
17172;DHT22;8701;50.150;8.756;2023-09-30T14:29:44;30.50;76.40
17172;DHT22;8701;50.150;8.756;2023-09-30T14:33:46;30.00;74.80
17172;DHT22;8701;50.150;8.756;2023-09-30T14:37:49;29.70;77.20
17172;DHT22;8701;50.150;8.756;2023-09-30T14:41:56;29.30;78.40
17172;DHT22;8701;50.150;8.756;2023-09-30T14:46:01;29.10;81.20
17172;DHT22;8701;50.150;8.756;2023-09-30T14:50:06;28.90;80.90
17172;DHT22;8701;50.150;8.756;2023-09-30T14:54:08;28.60;80.90
17172;DHT22;8701;50.150;8.756;2023-09-30T14:58:12;28.30;81.90
17172;DHT22;8701;50.150;8.756;2023-09-30T15:02:15;27.90;82.60
17172;DHT22;8701;50.150;8.756;2023-09-30T15:06:17;27.30;83.20
17172;DHT22;8701;50.150;8.756;2023-09-30T15:10:19;26.90;83.60
17172;DHT22;8701;50.150;8.756;2023-09-30T15:14:23;26.50;85.80
17172;DHT22;8701;50.150;8.756;2023-09-30T15:18:26;26.10;84.00
17172;DHT22;8701;50.150;8.756;2023-09-30T15:22:28;25.90;86.80
17172;DHT22;8701;50.150;8.756;2023-09-30T15:26:30;25.60;88.50
17172;DHT22;8701;50.150;8.756;2023-09-30T15:30:34;25.40;88.60
17172;DHT22;8701;50.150;8.756;2023-09-30T15:34:36;25.20;90.10
17172;DHT22;8701;50.150;8.756;2023-09-30T15:38:41;25.00;91.00
17172;DHT22;8701;50.150;8.756;2023-09-30T15:42:43;24.80;89.00
17172;DHT22;8701;50.150;8.756;2023-09-30T15:46:47;24.50;90.90
17172;DHT22;8701;50.150;8.756;2023-09-30T15:50:49;24.20;91.40
17172;DHT22;8701;50.150;8.756;2023-09-30T15:54:51;24.00;92.70
17172;DHT22;8701;50.150;8.756;2023-09-30T15:58:54;23.80;93.10
17172;DHT22;8701;50.150;8.756;2023-09-30T16:02:59;23.70;93.30
17172;DHT22;8701;50.150;8.756;2023-09-30T16:07:01;23.50;94.40
17172;DHT22;8701;50.150;8.756;2023-09-30T16:11:04;23.40;94.00
17172;DHT22;8701;50.150;8.756;2023-09-30T16:15:07;23.20;94.50
17172;DHT22;8701;50.150;8.756;2023-09-30T16:19:13;23.00;95.70
17172;DHT22;8701;50.150;8.756;2023-09-30T16:23:15;22.90;96.40
17172;DHT22;8701;50.150;8.756;2023-09-30T16:27:17;22.60;96.10
17172;DHT22;8701;50.150;8.756;2023-09-30T16:31:19;22.50;96.70
17172;DHT22;8701;50.150;8.756;2023-09-30T16:35:23;22.30;96.70
17172;DHT22;8701;50.150;8.756;2023-09-30T16:39:25;22.20;96.60
17172;DHT22;8701;50.150;8.756;2023-09-30T16:43:27;22.20;97.00
17172;DHT22;8701;50.150;8.756;2023-09-30T16:47:29;22.00;97.90
17172;DHT22;8701;50.150;8.756;2023-09-30T16:51:34;21.70;98.10
17172;DHT22;8701;50.150;8.756;2023-09-30T16:55:37;21.60;99.40
17172;DHT22;8701;50.150;8.756;2023-09-30T16:59:39;21.50;99.90
17172;DHT22;8701;50.150;8.756;2023-09-30T17:03:41;21.30;99.90
17172;DHT22;8701;50.150;8.756;2023-09-30T17:07:45;21.20;99.80
17172;DHT22;8701;50.150;8.756;2023-09-30T17:11:47;21.00;99.60
17172;DHT22;8701;50.150;8.756;2023-09-30T17:15:49;20.90;99.90
17172;DHT22;8701;50.150;8.756;2023-09-30T17:19:51;20.80;99.90
17172;DHT22;8701;50.150;8.756;2023-09-30T17:23:55;20.80;99.90
17172;DHT22;8701;50.150;8.756;2023-09-30T17:27:58;20.70;99.90
17172;DHT22;8701;50.150;8.756;2023-09-30T17:32:00;20.50;99.90
17172;DHT22;8701;50.150;8.756;2023-09-30T17:36:05;20.40;99.90
17172;DHT22;8701;50.150;8.756;2023-09-30T17:40:11;20.30;99.90
17172;DHT22;8701;50.150;8.756;2023-09-30T17:44:13;20.10;99.90
17172;DHT22;8701;50.150;8.756;2023-09-30T17:48:16;20.00;99.90
17172;DHT22;8701;50.150;8.756;2023-09-30T17:52:19;19.90;99.90
17172;DHT22;8701;50.150;8.756;2023-09-30T17:56:23;19.90;99.90
17172;DHT22;8701;50.150;8.756;2023-09-30T18:00:27;19.80;99.90
17172;DHT22;8701;50.150;8.756;2023-09-30T18:04:29;19.70;99.90
17172;DHT22;8701;50.150;8.756;2023-09-30T18:08:31;19.60;99.90
17172;DHT22;8701;50.150;8.756;2023-09-30T18:12:35;19.30;99.90
17172;DHT22;8701;50.150;8.756;2023-09-30T18:16:37;19.20;99.90
17172;DHT22;8701;50.150;8.756;2023-09-30T18:20:40;19.10;99.90
17172;DHT22;8701;50.150;8.756;2023-09-30T18:24:42;18.90;99.90
17172;DHT22;8701;50.150;8.756;2023-09-30T18:28:46;18.80;99.90
17172;DHT22;8701;50.150;8.756;2023-09-30T18:32:48;18.80;99.90
17172;DHT22;8701;50.150;8.756;2023-09-30T18:36:50;18.60;99.90
17172;DHT22;8701;50.150;8.756;2023-09-30T18:40:52;18.40;99.90
17172;DHT22;8701;50.150;8.756;2023-09-30T18:44:56;18.40;99.90
17172;DHT22;8701;50.150;8.756;2023-09-30T18:48:58;18.40;99.90
17172;DHT22;8701;50.150;8.756;2023-09-30T18:53:01;18.30;99.90
17172;DHT22;8701;50.150;8.756;2023-09-30T18:57:03;18.20;99.90
17172;DHT22;8701;50.150;8.756;2023-09-30T19:01:07;18.10;99.90
17172;DHT22;8701;50.150;8.756;2023-09-30T19:05:10;18.00;99.90
17172;DHT22;8701;50.150;8.756;2023-09-30T19:09:14;18.00;99.90
17172;DHT22;8701;50.150;8.756;2023-09-30T19:13:17;17.90;99.90
17172;DHT22;8701;50.150;8.756;2023-09-30T19:17:21;17.70;99.90
17172;DHT22;8701;50.150;8.756;2023-09-30T19:21:23;17.60;99.90
17172;DHT22;8701;50.150;8.756;2023-09-30T19:25:25;17.50;99.90
17172;DHT22;8701;50.150;8.756;2023-09-30T19:29:28;17.40;99.90
17172;DHT22;8701;50.150;8.756;2023-09-30T19:33:32;17.20;99.90
17172;DHT22;8701;50.150;8.756;2023-09-30T19:37:35;17.10;99.90
17172;DHT22;8701;50.150;8.756;2023-09-30T19:41:37;17.10;99.90
17172;DHT22;8701;50.150;8.756;2023-09-30T19:45:40;17.10;99.90
17172;DHT22;8701;50.150;8.756;2023-09-30T19:49:44;17.00;99.90
17172;DHT22;8701;50.150;8.756;2023-09-30T19:53:46;16.90;99.90
17172;DHT22;8701;50.150;8.756;2023-09-30T19:57:48;16.90;99.90
17172;DHT22;8701;50.150;8.756;2023-09-30T20:01:50;16.80;99.90
17172;DHT22;8701;50.150;8.756;2023-09-30T20:05:55;16.70;99.90
17172;DHT22;8701;50.150;8.756;2023-09-30T20:09:57;16.60;99.90
17172;DHT22;8701;50.150;8.756;2023-09-30T20:13:59;16.60;99.90
17172;DHT22;8701;50.150;8.756;2023-09-30T20:18:02;16.50;99.90
17172;DHT22;8701;50.150;8.756;2023-09-30T20:22:05;16.50;99.90
17172;DHT22;8701;50.150;8.756;2023-09-30T20:26:08;16.40;99.90
17172;DHT22;8701;50.150;8.756;2023-09-30T20:30:13;16.20;99.90
17172;DHT22;8701;50.150;8.756;2023-09-30T20:34:16;16.10;99.90
17172;DHT22;8701;50.150;8.756;2023-09-30T20:38:20;16.10;99.90
17172;DHT22;8701;50.150;8.756;2023-09-30T20:42:22;16.00;99.90
17172;DHT22;8701;50.150;8.756;2023-09-30T20:46:24;15.90;99.90
17172;DHT22;8701;50.150;8.756;2023-09-30T20:50:27;15.90;99.90
17172;DHT22;8701;50.150;8.756;2023-09-30T20:54:30;15.80;99.90
17172;DHT22;8701;50.150;8.756;2023-09-30T20:58:32;15.80;99.90
17172;DHT22;8701;50.150;8.756;2023-09-30T21:02:35;15.70;99.90
17172;DHT22;8701;50.150;8.756;2023-09-30T21:06:37;15.60;99.90
17172;DHT22;8701;50.150;8.756;2023-09-30T21:10:40;15.60;99.90
17172;DHT22;8701;50.150;8.756;2023-09-30T21:14:43;15.50;99.90
17172;DHT22;8701;50.150;8.756;2023-09-30T21:18:45;15.50;99.90
17172;DHT22;8701;50.150;8.756;2023-09-30T21:22:48;15.40;99.90
17172;DHT22;8701;50.150;8.756;2023-09-30T21:26:51;15.40;99.90
17172;DHT22;8701;50.150;8.756;2023-09-30T21:30:53;15.40;99.90
17172;DHT22;8701;50.150;8.756;2023-09-30T21:34:55;15.30;99.90
17172;DHT22;8701;50.150;8.756;2023-09-30T21:38:58;15.20;99.90
17172;DHT22;8701;50.150;8.756;2023-09-30T21:43:02;15.20;99.90
17172;DHT22;8701;50.150;8.756;2023-09-30T21:47:04;15.20;99.90
17172;DHT22;8701;50.150;8.756;2023-09-30T21:51:07;15.10;99.90
17172;DHT22;8701;50.150;8.756;2023-09-30T21:55:09;15.00;99.90
17172;DHT22;8701;50.150;8.756;2023-09-30T21:59:13;14.90;99.90
17172;DHT22;8701;50.150;8.756;2023-09-30T22:03:15;14.80;99.90
17172;DHT22;8701;50.150;8.756;2023-09-30T22:07:18;14.70;99.90
17172;DHT22;8701;50.150;8.756;2023-09-30T22:11:25;14.60;99.90
17172;DHT22;8701;50.150;8.756;2023-09-30T22:15:28;14.50;99.90
17172;DHT22;8701;50.150;8.756;2023-09-30T22:19:30;14.50;99.90
17172;DHT22;8701;50.150;8.756;2023-09-30T22:23:33;14.40;99.90
17172;DHT22;8701;50.150;8.756;2023-09-30T22:27:35;14.40;99.90
17172;DHT22;8701;50.150;8.756;2023-09-30T22:31:38;14.40;99.90
17172;DHT22;8701;50.150;8.756;2023-09-30T22:35:41;14.40;99.90
17172;DHT22;8701;50.150;8.756;2023-09-30T22:39:44;14.40;99.90
17172;DHT22;8701;50.150;8.756;2023-09-30T22:43:47;14.20;99.90
17172;DHT22;8701;50.150;8.756;2023-09-30T22:47:52;14.10;99.90
17172;DHT22;8701;50.150;8.756;2023-09-30T22:51:54;14.10;99.90
17172;DHT22;8701;50.150;8.756;2023-09-30T22:55:57;14.10;99.90
17172;DHT22;8701;50.150;8.756;2023-09-30T22:59:59;14.00;99.90
17172;DHT22;8701;50.150;8.756;2023-09-30T23:04:09;14.00;99.90
17172;DHT22;8701;50.150;8.756;2023-09-30T23:08:12;14.00;99.90
17172;DHT22;8701;50.150;8.756;2023-09-30T23:12:16;14.00;99.90
17172;DHT22;8701;50.150;8.756;2023-09-30T23:16:18;13.90;99.90
17172;DHT22;8701;50.150;8.756;2023-09-30T23:20:22;14.00;99.90
17172;DHT22;8701;50.150;8.756;2023-09-30T23:24:27;13.90;99.90
17172;DHT22;8701;50.150;8.756;2023-09-30T23:28:31;13.80;99.90
17172;DHT22;8701;50.150;8.756;2023-09-30T23:32:35;13.80;99.90
17172;DHT22;8701;50.150;8.756;2023-09-30T23:36:38;13.80;99.90
17172;DHT22;8701;50.150;8.756;2023-09-30T23:40:41;13.90;99.90
17172;DHT22;8701;50.150;8.756;2023-09-30T23:44:43;13.80;99.90
17172;DHT22;8701;50.150;8.756;2023-09-30T23:48:47;13.90;99.90
17172;DHT22;8701;50.150;8.756;2023-09-30T23:52:54;13.90;99.90
17172;DHT22;8701;50.150;8.756;2023-09-30T23:56:58;13.90;99.90
